Pedro Bay, AK

02:38 AM AKDT em 03 de Julho de 2015 (GMT -0800)
Iliamna | | Change Station
CLOSE
Current Station
Aeroporto
Location: Iliamna,
Altitude: 161 ft
Estações Meteorológicas Próximas

Elev 161 ft 59.75 °N, 154.91 °W | Updated 45 minutes ago

Clear
Céu Limpo
53 °F
Aparente 53 °F
N
6
Vento Variável Vento de Norte

Hoje
Máxima -- | Mínima -- °F
--% Possibilidade de Precip.
Ontem
Máxima -- | Mínima -- °F
Precip. -- pol
5:06 AM 11:40 PM
Lua cheia, 98% visible
Pressão 30.15 pol
Visibilidade 10.0 milhas
Nuvens Céu Limpo
Ponto de Orvalho 44 °F
Humidade 71%
Chuva 0.00 pol
Altura de Neve Não disponível
UV 0 em vez de 12
Pólen Não disponível
Qualidade do Ar Não disponível
Flu Activity Não disponível
METAR PAIL 030953Z AUTO 35005KT 10SM CLR 12/07 A3014 RMK AO2 SLP208 T01170067 TSNO

More Conditions Fewer Conditions

Pressão 30.15 pol
Visibilidade 10.0 milhas
Nuvens Céu Limpo
Ponto de Orvalho 44 °F
Humidade 71%
Chuva 0.00 pol
Altura de Neve Não disponível
UV 0 em vez de 12
Pólen Não disponível
Qualidade do Ar Não disponível
Flu Activity Não disponível
METAR PAIL 030953Z AUTO 35005KT 10SM CLR 12/07 A3014 RMK AO2 SLP208 T01170067 TSNO

More Conditions Fewer Conditions

10-Day Weather Forecast

×

Almanac

Astronomia

Jul. 03, 2015 Nascer Pôr
Hora atual
Crepúsculo civil
Crepúsculo náutico
Crepúsculo astronómico
Lua
Comprimento da luz visível
Duração do Dia
Tomorrow will be .
, % of the Moon is Illuminated

Extremos de Hoje

situação na parte mais alta situação na parte mais baixa

Community

WunderPhotos

Upload Photos

1,834,647 fotografias inseridas!

WunderBlogs® & News

Nearby

Qualidade do Ar

  Qualidade do Ar Índice da Q.A. Poluente
Not available.

Altura da Neve

Estação altura Altitude

Actividade Sísmisca

Cidade Distância Mag. Hora & Data
Mínima magnitude apresentada é 2.5.

Temperaturas das Águas Costeiras

Local Temperatura

Stations

Estações Meteorológicas Próximas

Localização da Estação Temp. Sensação Térmica Ponto de Orvalho Humidade Vento Precip. Elev Actualizado Tipo